Time;durP1;ratioP1;P1;durP2;ratioP2;P2;SDS_P1;SDS_P2;PMS_P1;PMS_P2;Temp;Humidity;BMP_temperature;BMP_pressure;BME280_temperature;BME280_humidity;BME280_pressure;Samples;Min_cycle;Max_cycle;Signal;HPM_P1;HPM_P2
2022/01/13 00:00:20;;;;;;;131.63;51.08;;;1.80;99.90;;;;;;5043757;28;20598;-75
2022/01/13 00:02:46;;;;;;;126.50;51.90;;;1.80;99.90;;;;;;5061201;28;20195;-75
2022/01/13 00:05:14;;;;;;;138.98;53.17;;;1.80;99.90;;;;;;5060619;28;20048;-75
2022/01/13 00:07:41;;;;;;;133.20;51.72;;;1.80;99.90;;;;;;5043082;28;20048;-75
2022/01/13 00:10:08;;;;;;;126.00;51.50;;;1.80;99.90;;;;;;5060773;28;20098;-75
2022/01/13 00:12:40;;;;;;;138.88;51.60;;;1.70;99.90;;;;;;5061192;28;20561;-75
2022/01/13 00:15:20;;;;;;;131.40;50.00;;;1.70;99.90;;;;;;5060160;28;20061;-74
2022/01/13 00:18:00;;;;;;;138.32;52.35;;;1.70;99.90;;;;;;5040703;28;20055;-75
2022/01/13 00:20:59;;;;;;;137.80;54.05;;;1.70;99.90;;;;;;5053530;28;20053;-74
2022/01/13 00:26:27;;;;;;;144.27;53.30;;;1.80;99.90;;;;;;4976265;28;20258;-75
2022/01/13 00:28:57;;;;;;;134.20;53.30;;;1.80;99.90;;;;;;5045641;28;20059;-74
2022/01/13 00:31:28;;;;;;;140.88;50.95;;;1.80;99.90;;;;;;5059785;28;20140;-75
2022/01/13 00:33:57;;;;;;;161.35;57.05;;;1.80;99.90;;;;;;5026174;28;20249;-75
2022/01/13 00:36:29;;;;;;;148.13;55.83;;;1.80;99.90;;;;;;5060309;28;20246;-74
2022/01/13 00:38:59;;;;;;;157.73;56.42;;;1.80;99.90;;;;;;5041754;28;20053;-75
2022/01/13 00:41:29;;;;;;;150.30;52.95;;;1.90;99.90;;;;;;5048785;28;20080;-75
2022/01/13 00:43:56;;;;;;;163.82;55.70;;;1.90;99.90;;;;;;5061007;28;20292;-74
2022/01/13 00:46:27;;;;;;;140.60;50.70;;;1.90;99.90;;;;;;5059946;28;20143;-74
2022/01/13 00:48:56;;;;;;;137.27;50.97;;;1.90;99.90;;;;;;5055232;28;20064;-74
2022/01/13 00:51:24;;;;;;;150.55;53.55;;;1.80;99.90;;;;;;5045475;28;20483;-75
2022/01/13 00:53:52;;;;;;;148.25;54.90;;;1.70;99.90;;;;;;5058173;28;20138;-74
2022/01/13 00:56:19;;;;;;;127.40;50.22;;;1.70;99.90;;;;;;5056923;28;20113;-75
2022/01/13 00:58:46;;;;;;;133.30;52.00;;;1.70;99.90;;;;;;5041971;28;20299;-74
2022/01/13 01:01:12;;;;;;;137.55;52.05;;;1.70;99.90;;;;;;5058398;28;20502;-74
2022/01/13 01:03:40;;;;;;;132.43;50.45;;;1.70;99.90;;;;;;5030156;28;20527;-74
2022/01/13 01:06:08;;;;;;;138.30;49.33;;;1.70;99.90;;;;;;5039758;28;20056;-75
2022/01/13 01:08:35;;;;;;;119.63;49.10;;;1.70;99.90;;;;;;5059875;28;20048;-75
2022/01/13 01:11:03;;;;;;;125.20;49.05;;;1.60;99.90;;;;;;5041983;28;20123;-74
2022/01/13 01:13:33;;;;;;;122.72;49.72;;;1.60;99.90;;;;;;5041206;28;20060;-75
2022/01/13 01:16:05;;;;;;;136.18;48.65;;;1.60;99.90;;;;;;5059431;28;20078;-75
2022/01/13 01:18:40;;;;;;;131.90;48.58;;;1.60;99.90;;;;;;5040995;28;20762;-74
2022/01/13 01:24:55;;;;;;;122.45;50.97;;;1.60;99.90;;;;;;5059105;28;20056;-75
2022/01/13 01:26:41;;;;;;;126.53;46.38;;;1.70;99.90;;;;;;5014823;28;20160;-74
2022/01/13 01:29:21;;;;;;;123.55;50.20;;;1.60;99.90;;;;;;5022538;28;20057;-74
2022/01/13 01:31:52;;;;;;;125.95;49.72;;;1.60;99.90;;;;;;5039559;28;20159;-74
2022/01/13 01:37:16;;;;;;;131.80;48.03;;;1.80;99.90;;;;;;5056462;28;20209;-75
2022/01/13 01:39:46;;;;;;;118.63;47.50;;;1.70;99.90;;;;;;5059527;28;20494;-75
2022/01/13 01:42:14;;;;;;;126.65;48.85;;;1.70;99.90;;;;;;5060081;28;20052;-75
2022/01/13 01:44:46;;;;;;;121.93;47.25;;;1.80;99.90;;;;;;5025731;28;20103;-74
2022/01/13 01:47:15;;;;;;;134.13;54.40;;;1.70;99.90;;;;;;5057833;28;20388;-75
2022/01/13 01:49:46;;;;;;;121.20;48.30;;;1.80;99.90;;;;;;5044540;28;20490;-74
2022/01/13 01:52:16;;;;;;;125.57;48.58;;;1.70;99.90;;;;;;5062751;28;20055;-74
2022/01/13 01:54:44;;;;;;;122.53;48.72;;;1.70;99.90;;;;;;5031618;28;20075;-74
2022/01/13 01:57:11;;;;;;;136.02;51.10;;;1.70;99.90;;;;;;5062299;28;20114;-74
2022/01/13 01:59:40;;;;;;;128.00;50.67;;;1.70;99.90;;;;;;5044493;28;20075;-74
2022/01/13 02:02:08;;;;;;;130.75;50.08;;;1.60;99.90;;;;;;5044981;28;20114;-75
2022/01/13 02:04:36;;;;;;;124.07;50.83;;;1.70;99.90;;;;;;5055438;28;20120;-75
2022/01/13 02:07:07;;;;;;;122.32;45.10;;;1.80;99.90;;;;;;5062616;28;20139;-75
2022/01/13 02:09:36;;;;;;;137.02;52.60;;;1.70;99.90;;;;;;5045248;28;20099;-74
2022/01/13 02:12:08;;;;;;;139.60;54.53;;;1.60;99.90;;;;;;5062164;28;20139;-75
2022/01/13 02:14:48;;;;;;;137.55;51.42;;;1.70;99.90;;;;;;5051921;28;20056;-74
2022/01/13 02:17:22;;;;;;;137.45;52.05;;;1.70;99.90;;;;;;5062719;28;20323;-74
2022/01/13 02:19:52;;;;;;;137.07;52.78;;;1.60;99.90;;;;;;5044546;28;20140;-75
2022/01/13 02:22:19;;;;;;;125.78;52.53;;;1.60;99.90;;;;;;5044201;28;20422;-74
2022/01/13 02:24:46;;;;;;;115.07;47.22;;;1.60;99.90;;;;;;5059300;28;20139;-75
2022/01/13 02:27:13;;;;;;;132.10;48.72;;;1.60;99.90;;;;;;5043135;28;20052;-74
2022/01/13 02:29:40;;;;;;;133.50;50.60;;;1.50;99.90;;;;;;5042609;28;20434;-74
2022/01/13 02:32:08;;;;;;;140.85;48.72;;;1.50;99.90;;;;;;5024480;28;20072;-75
2022/01/13 02:34:35;;;;;;;133.80;50.67;;;1.50;99.90;;;;;;5032991;28;20072;-75
2022/01/13 02:37:03;;;;;;;134.73;50.47;;;1.60;99.90;;;;;;5061649;28;20125;-74
2022/01/13 02:39:30;;;;;;;131.52;49.50;;;1.60;99.90;;;;;;5044549;28;20133;-74
2022/01/13 02:41:58;;;;;;;128.65;47.80;;;1.60;99.90;;;;;;5062262;28;20380;-74
2022/01/13 02:44:25;;;;;;;126.80;50.72;;;1.60;99.90;;;;;;5062366;28;20049;-74
2022/01/13 02:47:09;;;;;;;127.28;48.30;;;1.60;99.90;;;;;;5036054;28;20708;-75
2022/01/13 02:49:51;;;;;;;127.35;48.22;;;1.50;99.90;;;;;;5039937;28;20071;-74
2022/01/13 02:52:19;;;;;;;133.63;48.00;;;1.50;99.90;;;;;;5043629;28;20090;-74
2022/01/13 02:54:46;;;;;;;121.07;47.92;;;1.40;99.90;;;;;;5058696;28;20463;-75
2022/01/13 02:57:13;;;;;;;125.03;47.28;;;1.40;99.90;;;;;;5039576;28;20131;-75
2022/01/13 02:59:39;;;;;;;123.78;48.60;;;1.40;99.90;;;;;;5040337;28;20160;-74
2022/01/13 03:02:06;;;;;;;121.38;44.90;;;1.40;99.90;;;;;;5043557;28;20060;-75
2022/01/13 03:04:33;;;;;;;125.68;45.95;;;1.40;99.90;;;;;;5044062;28;20056;-74
2022/01/13 03:07:00;;;;;;;125.95;48.25;;;1.40;99.90;;;;;;5044189;28;20040;-75
2022/01/13 03:09:27;;;;;;;117.85;45.03;;;1.50;99.90;;;;;;5062834;28;20076;-74
2022/01/13 03:11:53;;;;;;;112.60;45.08;;;1.40;99.90;;;;;;5025766;28;20079;-74
2022/01/13 03:14:20;;;;;;;127.45;48.53;;;1.30;99.90;;;;;;5042328;28;20049;-75
2022/01/13 03:16:47;;;;;;;127.97;46.50;;;1.30;99.90;;;;;;5034890;28;20064;-74
2022/01/13 03:19:13;;;;;;;128.27;47.42;;;1.30;99.90;;;;;;5058066;28;20515;-75
2022/01/13 03:21:40;;;;;;;136.63;48.20;;;1.30;99.90;;;;;;5042731;28;20353;-75
2022/01/13 03:24:10;;;;;;;121.75;47.20;;;1.30;99.90;;;;;;5054232;28;20076;-74
2022/01/13 03:26:38;;;;;;;135.30;46.33;;;1.30;99.90;;;;;;5050262;28;20051;-74
2022/01/13 03:31:39;;;;;;;130.95;47.58;;;1.30;99.90;;;;;;5058613;28;20515;-74
2022/01/13 03:34:07;;;;;;;125.93;46.63;;;1.30;99.90;;;;;;5059718;28;20414;-75
2022/01/13 03:36:34;;;;;;;128.95;45.33;;;1.30;99.90;;;;;;5060415;28;20481;-75
2022/01/13 03:39:01;;;;;;;124.00;45.92;;;1.30;99.90;;;;;;5060214;28;20815;-75
2022/01/13 03:41:28;;;;;;;132.65;47.85;;;1.30;99.90;;;;;;5058673;28;20066;-74
2022/01/13 03:43:55;;;;;;;136.73;48.38;;;1.30;99.90;;;;;;5046982;28;20225;-75
2022/01/13 03:46:22;;;;;;;131.05;48.20;;;1.40;99.90;;;;;;5048100;28;20052;-74
2022/01/13 03:48:49;;;;;;;140.05;50.80;;;1.40;99.90;;;;;;5040034;28;20045;-75
2022/01/13 03:51:16;;;;;;;147.52;48.25;;;1.40;99.90;;;;;;5041802;28;20045;-75
2022/01/13 03:54:07;;;;;;;143.82;48.75;;;1.30;99.90;;;;;;5057917;28;20136;-74
2022/01/13 03:56:43;;;;;;;144.20;48.65;;;1.30;99.90;;;;;;5053118;28;20528;-74
2022/01/13 03:59:41;;;;;;;153.15;47.67;;;1.20;99.90;;;;;;5059585;28;20499;-74
2022/01/13 04:02:13;;;;;;;154.77;50.67;;;1.20;99.90;;;;;;5057860;28;20045;-74
2022/01/13 04:04:45;;;;;;;171.25;52.35;;;1.20;99.90;;;;;;5021506;28;20716;-74
2022/01/13 04:07:21;;;;;;;168.15;53.40;;;1.20;99.90;;;;;;5039833;28;20103;-75
2022/01/13 04:09:47;;;;;;;178.60;52.20;;;1.20;99.90;;;;;;5025585;28;20102;-75
2022/01/13 04:12:17;;;;;;;171.98;51.13;;;1.20;99.90;;;;;;5033987;28;20037;-75
2022/01/13 04:14:58;;;;;;;179.00;53.80;;;1.30;99.90;;;;;;5024965;28;20041;-74
2022/01/13 04:17:26;;;;;;;203.05;56.28;;;1.20;99.90;;;;;;5045898;28;20069;-74
2022/01/13 04:19:54;;;;;;;196.02;55.15;;;1.20;99.90;;;;;;5048608;28;20459;-74
2022/01/13 04:22:20;;;;;;;199.02;61.35;;;1.20;99.90;;;;;;5038264;28;20122;-74
2022/01/13 04:24:50;;;;;;;206.32;58.58;;;1.20;99.90;;;;;;5054874;28;20071;-74
2022/01/13 04:27:31;;;;;;;202.23;57.33;;;1.10;99.90;;;;;;5022541;28;20136;-75
2022/01/13 04:32:43;;;;;;;241.15;61.28;;;1.20;99.90;;;;;;5058706;28;20506;-75
2022/01/13 04:35:10;;;;;;;217.80;57.20;;;1.10;99.90;;;;;;5060311;28;20076;-74
2022/01/13 04:37:38;;;;;;;262.20;63.28;;;1.10;99.90;;;;;;5059167;28;20156;-74
2022/01/13 04:40:08;;;;;;;282.20;67.03;;;1.20;99.90;;;;;;5040885;28;20395;-74
2022/01/13 04:42:37;;;;;;;251.25;65.57;;;1.20;99.90;;;;;;5046328;28;20056;-75
2022/01/13 04:45:05;;;;;;;261.17;64.85;;;1.20;99.90;;;;;;5052949;28;20060;-74
2022/01/13 04:47:32;;;;;;;286.15;68.90;;;1.20;99.90;;;;;;5029433;28;20049;-74
2022/01/13 04:49:59;;;;;;;286.27;67.07;;;1.20;99.90;;;;;;5040590;28;20118;-75
2022/01/13 04:52:26;;;;;;;348.08;71.85;;;1.20;99.90;;;;;;5038034;28;20260;-74
2022/01/13 04:54:52;;;;;;;306.42;67.53;;;1.20;99.90;;;;;;5052398;28;20100;-74
2022/01/13 04:57:19;;;;;;;322.38;68.00;;;1.20;99.90;;;;;;5040871;28;20037;-75
2022/01/13 04:59:46;;;;;;;294.52;63.45;;;1.20;99.90;;;;;;5044889;28;20443;-74
2022/01/13 05:02:16;;;;;;;353.00;74.43;;;1.20;99.90;;;;;;5057765;28;20045;-74
2022/01/13 05:04:43;;;;;;;303.30;71.57;;;1.20;99.90;;;;;;5058232;28;20590;-75
2022/01/13 05:07:10;;;;;;;334.42;69.28;;;1.20;99.90;;;;;;5058492;28;20124;-74
2022/01/13 05:09:37;;;;;;;340.13;69.78;;;1.20;99.90;;;;;;5059467;28;20133;-74
2022/01/13 05:12:04;;;;;;;498.40;81.97;;;1.30;99.90;;;;;;5051772;28;20526;-76
2022/01/13 05:14:31;;;;;;;535.67;89.40;;;1.20;99.90;;;;;;5054254;28;20068;-74
2022/01/13 05:17:06;;;;;;;542.45;88.97;;;1.20;99.90;;;;;;5043294;28;20542;-74
2022/01/13 05:19:46;;;;;;;648.17;91.32;;;1.20;99.90;;;;;;5034449;28;20102;-74
2022/01/13 05:24:40;;;;;;;509.38;82.20;;;1.20;99.90;;;;;;5055002;28;20591;-74
2022/01/13 05:27:08;;;;;;;649.28;94.97;;;1.20;99.90;;;;;;5047190;28;20079;-74
2022/01/13 05:29:34;;;;;;;578.30;94.38;;;1.20;99.90;;;;;;5031934;28;20097;-75
2022/01/13 05:32:01;;;;;;;596.67;89.10;;;1.20;99.90;;;;;;5044557;28;20538;-75
2022/01/13 05:34:28;;;;;;;568.65;85.95;;;1.30;99.90;;;;;;5062411;28;20122;-74
2022/01/13 05:37:11;;;;;;;570.13;85.18;;;1.30;99.90;;;;;;5046538;28;20048;-74
2022/01/13 05:39:38;;;;;;;568.53;80.85;;;1.20;99.90;;;;;;5043656;28;20056;-74
2022/01/13 05:42:05;;;;;;;683.30;93.63;;;1.20;99.90;;;;;;5036610;28;20044;-75
2022/01/13 05:44:38;;;;;;;605.25;86.50;;;1.20;99.90;;;;;;5039463;28;20056;-74
2022/01/13 05:47:06;;;;;;;600.97;87.68;;;1.20;99.90;;;;;;5053814;28;20513;-74
2022/01/13 05:49:33;;;;;;;616.90;86.47;;;1.10;99.90;;;;;;5043814;28;20483;-74
2022/01/13 05:52:00;;;;;;;612.13;81.55;;;1.10;99.90;;;;;;5027999;28;20044;-75
2022/01/13 05:54:28;;;;;;;622.22;86.25;;;1.10;99.90;;;;;;5033422;28;20052;-75
2022/01/13 05:56:54;;;;;;;560.70;73.82;;;1.10;99.90;;;;;;5060274;28;20601;-74
2022/01/13 05:59:22;;;;;;;511.75;69.03;;;1.10;99.90;;;;;;5061974;28;20049;-74
2022/01/13 06:01:49;;;;;;;587.15;76.18;;;1.10;99.90;;;;;;5062538;28;20417;-75
2022/01/13 06:04:16;;;;;;;529.55;68.32;;;1.10;99.90;;;;;;5062987;28;20049;-75
2022/01/13 06:06:43;;;;;;;427.02;59.75;;;1.10;99.90;;;;;;5046687;28;20045;-74
2022/01/13 06:09:10;;;;;;;548.25;76.55;;;1.20;99.90;;;;;;5042807;28;20412;-75
2022/01/13 06:11:39;;;;;;;470.55;64.47;;;1.20;99.90;;;;;;5048768;28;20076;-74
2022/01/13 06:14:07;;;;;;;576.95;76.03;;;1.20;99.90;;;;;;5014230;28;20444;-75
2022/01/13 06:16:33;;;;;;;417.50;54.70;;;1.20;99.90;;;;;;5025386;28;20527;-75
2022/01/13 06:19:01;;;;;;;612.30;79.75;;;1.10;99.90;;;;;;5055615;28;20084;-75
2022/01/13 06:21:27;;;;;;;485.05;63.20;;;1.10;99.90;;;;;;5055274;28;20076;-74
2022/01/13 06:23:54;;;;;;;551.28;71.03;;;1.10;99.90;;;;;;5059728;28;20048;-74
2022/01/13 06:26:21;;;;;;;603.95;76.75;;;1.10;99.90;;;;;;5028365;28;20107;-74
2022/01/13 06:28:48;;;;;;;590.25;74.03;;;1.10;99.90;;;;;;5023924;28;20049;-75
2022/01/13 06:31:17;;;;;;;540.28;69.93;;;1.20;99.90;;;;;;5042691;28;20044;-74
2022/01/13 06:33:44;;;;;;;542.40;70.75;;;1.20;99.90;;;;;;5047960;28;20663;-73
2022/01/13 06:36:14;;;;;;;727.53;94.13;;;1.10;99.90;;;;;;5056612;28;20500;-74
2022/01/13 06:38:42;;;;;;;652.05;84.50;;;1.10;99.90;;;;;;5031097;28;20095;-73
2022/01/13 06:41:09;;;;;;;591.63;74.05;;;1.20;99.90;;;;;;5054859;28;20067;-73
2022/01/13 06:43:36;;;;;;;607.15;82.25;;;1.20;99.90;;;;;;5030548;28;20156;-75
2022/01/13 06:46:03;;;;;;;719.72;95.30;;;1.20;99.90;;;;;;5046234;28;20048;-74
2022/01/13 06:48:30;;;;;;;652.55;84.10;;;1.10;99.90;;;;;;5021587;28;20071;-73
2022/01/13 06:50:57;;;;;;;620.55;86.13;;;1.10;99.90;;;;;;5041780;28;20272;-73
2022/01/13 06:53:25;;;;;;;625.85;82.72;;;1.20;99.90;;;;;;5060427;28;20078;-73
2022/01/13 06:55:52;;;;;;;644.45;88.88;;;1.10;99.90;;;;;;5050255;28;20477;-74
2022/01/13 06:58:19;;;;;;;670.20;85.00;;;1.10;99.90;;;;;;5048434;28;20072;-75
2022/01/13 07:00:46;;;;;;;744.42;100.63;;;1.00;99.90;;;;;;5022667;28;20049;-73
2022/01/13 07:03:12;;;;;;;629.20;79.85;;;1.00;99.90;;;;;;5056823;28;20518;-74
2022/01/13 07:05:39;;;;;;;509.92;65.97;;;1.00;99.90;;;;;;5056928;28;20260;-74
2022/01/13 07:08:12;;;;;;;609.78;80.22;;;0.90;99.90;;;;;;5026229;28;20533;-74
2022/01/13 07:10:39;;;;;;;534.08;65.88;;;0.90;99.90;;;;;;5044023;28;20502;-74
2022/01/13 07:13:05;;;;;;;686.92;86.28;;;0.90;99.90;;;;;;5043262;28;20110;-74
2022/01/13 07:15:32;;;;;;;670.42;85.43;;;1.00;99.90;;;;;;5060176;28;20068;-73
2022/01/13 07:18:00;;;;;;;562.22;70.63;;;1.10;99.90;;;;;;5040569;28;20044;-73
2022/01/13 07:20:27;;;;;;;499.17;61.72;;;1.10;99.90;;;;;;5042340;28;20541;-73
2022/01/13 07:22:54;;;;;;;520.63;65.55;;;1.10;99.90;;;;;;5043315;28;20045;-73
2022/01/13 07:25:21;;;;;;;647.22;85.35;;;1.10;99.90;;;;;;5035974;28;20079;-74
2022/01/13 07:27:48;;;;;;;627.03;80.45;;;1.10;99.90;;;;;;5039360;28;20556;-73
2022/01/13 07:30:14;;;;;;;634.83;75.82;;;1.10;99.90;;;;;;5040222;28;20437;-75
2022/01/13 07:32:41;;;;;;;586.10;78.35;;;1.10;99.90;;;;;;5040035;28;20562;-74
2022/01/13 07:35:10;;;;;;;595.58;75.10;;;1.00;99.90;;;;;;5023591;28;20135;-73
2022/01/13 07:37:36;;;;;;;685.50;89.78;;;1.10;99.90;;;;;;5042863;28;20265;-73
2022/01/13 07:40:04;;;;;;;631.08;80.38;;;1.10;99.90;;;;;;5041682;28;20147;-73
2022/01/13 07:42:31;;;;;;;741.42;90.53;;;1.10;99.90;;;;;;5044399;28;20045;-74
2022/01/13 07:44:58;;;;;;;489.35;69.63;;;1.10;99.90;;;;;;5041683;28;20614;-74
2022/01/13 07:47:26;;;;;;;549.03;75.20;;;1.10;99.90;;;;;;5056915;28;20039;-74
2022/01/13 07:49:52;;;;;;;644.90;84.47;;;1.10;99.90;;;;;;5021234;28;20134;-74
2022/01/13 07:52:19;;;;;;;697.28;91.78;;;1.10;99.90;;;;;;5040476;28;20358;-73
2022/01/13 07:54:46;;;;;;;702.08;93.20;;;1.10;99.90;;;;;;5052840;28;20075;-74
2022/01/13 07:57:13;;;;;;;716.17;89.05;;;1.20;99.90;;;;;;5050186;28;20052;-74
2022/01/13 07:59:39;;;;;;;737.05;100.57;;;1.20;99.90;;;;;;5058816;28;20087;-73
2022/01/13 08:02:07;;;;;;;697.70;97.32;;;1.20;99.90;;;;;;5060299;28;20079;-75
2022/01/13 08:04:34;;;;;;;674.15;93.80;;;1.30;99.90;;;;;;5059293;28;20465;-73
2022/01/13 08:07:00;;;;;;;676.08;95.03;;;1.30;99.90;;;;;;5056335;28;20467;-74
2022/01/13 08:09:28;;;;;;;640.40;88.55;;;1.20;99.90;;;;;;5060194;28;20350;-74
2022/01/13 08:11:54;;;;;;;725.10;106.70;;;1.20;99.90;;;;;;5060419;28;20079;-74
2022/01/13 08:14:21;;;;;;;786.20;107.78;;;1.20;99.90;;;;;;5060224;28;20594;-74
2022/01/13 08:16:49;;;;;;;738.03;97.22;;;1.20;99.90;;;;;;5058282;28;20331;-73
2022/01/13 08:22:01;;;;;;;741.42;106.07;;;1.20;99.90;;;;;;5039904;28;20632;-74
2022/01/13 08:24:28;;;;;;;686.78;94.10;;;1.20;99.90;;;;;;5053727;28;20558;-74
2022/01/13 08:26:55;;;;;;;682.88;99.40;;;1.20;99.90;;;;;;5056085;28;20074;-74
2022/01/13 08:29:21;;;;;;;726.38;101.78;;;1.20;99.90;;;;;;5041961;28;20123;-74
2022/01/13 08:31:48;;;;;;;719.97;100.68;;;1.20;99.90;;;;;;5059755;28;20086;-74
2022/01/13 08:34:16;;;;;;;727.50;102.97;;;1.30;99.90;;;;;;5042654;28;20084;-73
2022/01/13 08:36:44;;;;;;;705.75;99.32;;;1.30;99.90;;;;;;5059987;28;20356;-73
2022/01/13 08:39:11;;;;;;;718.88;105.03;;;1.40;99.90;;;;;;5060284;28;20056;-74
2022/01/13 08:41:40;;;;;;;752.92;111.13;;;1.40;99.90;;;;;;5060955;28;20036;-73
2022/01/13 08:44:07;;;;;;;783.72;113.97;;;1.40;99.90;;;;;;5026713;28;20052;-73
2022/01/13 08:46:35;;;;;;;672.58;101.13;;;1.50;99.90;;;;;;5025732;28;20053;-74
2022/01/13 08:49:03;;;;;;;485.88;85.03;;;1.50;99.90;;;;;;5057826;28;20120;-72
2022/01/13 08:51:29;;;;;;;592.53;90.97;;;1.50;99.90;;;;;;5058752;28;20045;-73
2022/01/13 08:53:56;;;;;;;748.13;115.53;;;1.50;99.90;;;;;;5038057;28;20912;-73
2022/01/13 08:56:23;;;;;;;763.17;101.50;;;1.50;99.90;;;;;;5038845;28;20135;-73
2022/01/13 08:58:50;;;;;;;679.13;105.75;;;1.50;99.90;;;;;;5062482;28;20071;-74
2022/01/13 09:01:17;;;;;;;755.22;110.38;;;1.50;99.90;;;;;;5062385;28;20635;-74
2022/01/13 09:03:44;;;;;;;774.13;115.30;;;1.60;99.90;;;;;;5062764;28;20049;-73
2022/01/13 09:06:11;;;;;;;766.92;100.93;;;1.60;99.90;;;;;;5063111;28;20489;-74
2022/01/13 09:08:38;;;;;;;688.42;99.32;;;1.60;99.90;;;;;;5057982;28;20076;-73
2022/01/13 09:11:05;;;;;;;573.97;85.43;;;1.60;99.90;;;;;;5061728;28;20101;-73
2022/01/13 09:13:36;;;;;;;510.63;78.35;;;1.60;99.90;;;;;;5062926;28;20052;-74
2022/01/13 09:16:13;;;;;;;505.90;79.75;;;1.50;99.90;;;;;;5045465;28;20122;-73
2022/01/13 09:21:16;;;;;;;504.90;77.32;;;1.70;99.90;;;;;;5045840;28;20516;-75
2022/01/13 09:23:43;;;;;;;480.83;81.38;;;1.70;99.90;;;;;;5060533;28;20303;-75
2022/01/13 09:26:10;;;;;;;346.55;66.28;;;1.80;99.90;;;;;;5028502;28;20122;-74
2022/01/13 09:28:37;;;;;;;350.00;66.63;;;1.80;99.90;;;;;;5062321;28;20051;-74
2022/01/13 09:31:04;;;;;;;364.80;68.35;;;1.80;99.90;;;;;;5063718;28;20075;-76
2022/01/13 09:33:31;;;;;;;313.90;62.95;;;1.80;99.90;;;;;;5048211;28;20044;-75
2022/01/13 09:35:59;;;;;;;305.05;61.72;;;1.90;99.90;;;;;;5062372;28;20127;-75
2022/01/13 09:38:26;;;;;;;268.83;58.05;;;1.90;99.90;;;;;;5037432;28;20273;-75
2022/01/13 09:40:53;;;;;;;287.20;60.08;;;1.90;99.90;;;;;;5044147;28;20518;-76
2022/01/13 09:43:22;;;;;;;286.35;60.63;;;1.90;99.90;;;;;;5063830;28;20067;-75
2022/01/13 09:45:49;;;;;;;263.67;57.22;;;1.90;99.90;;;;;;5043765;28;20037;-76
2022/01/13 09:48:16;;;;;;;291.88;60.58;;;2.00;99.90;;;;;;5046623;28;20068;-75
2022/01/13 09:50:46;;;;;;;324.90;62.90;;;2.00;99.90;;;;;;5041252;28;20128;-75
2022/01/13 09:53:13;;;;;;;302.80;63.17;;;2.10;99.90;;;;;;5044756;28;20544;-75
2022/01/13 09:55:42;;;;;;;290.17;61.42;;;2.10;99.90;;;;;;5039610;28;20334;-75
2022/01/13 09:58:14;;;;;;;274.73;58.88;;;2.00;99.90;;;;;;5046073;28;20106;-75
2022/01/13 10:00:42;;;;;;;293.10;64.03;;;2.10;99.90;;;;;;5058858;28;20086;-75
2022/01/13 10:03:26;;;;;;;268.23;61.30;;;2.00;99.90;;;;;;5044318;28;20060;-75
2022/01/13 10:05:54;;;;;;;314.52;65.53;;;2.10;99.90;;;;;;5037457;28;20316;-75
2022/01/13 10:08:43;;;;;;;274.33;61.65;;;2.10;99.90;;;;;;5043135;28;20044;-73
2022/01/13 10:11:23;;;;;;;262.30;66.28;;;2.20;99.90;;;;;;5061107;28;20048;-75
2022/01/13 10:16:22;;;;;;;254.95;60.33;;;2.10;99.90;;;;;;5044854;28;20051;-75
2022/01/13 10:17:16;;;;;;;212.02;53.03;;;2.00;99.90;;;;;;5043352;28;20048;-75
2022/01/13 10:19:45;;;;;;;203.75;52.70;;;2.00;99.90;;;;;;5060413;28;20090;-74
2022/01/13 10:22:21;;;;;;;228.40;56.28;;;1.80;99.90;;;;;;5062296;28;20511;-75
2022/01/13 10:24:48;;;;;;;;;;;1.80;99.90;;;;;;5040320;28;20265;-74
2022/01/13 10:27:16;;;;;;;228.45;54.45;;;1.80;99.90;;;;;;5042489;28;20012;-73
2022/01/13 10:29:53;;;;;;;217.95;53.75;;;1.90;99.90;;;;;;5038715;28;20102;-73
2022/01/13 10:32:32;;;;;;;214.00;54.30;;;2.00;99.90;;;;;;5062180;28;20048;-73
2022/01/13 10:35:02;;;;;;;208.82;51.95;;;2.10;99.90;;;;;;5061177;28;20622;-72
2022/01/13 10:37:35;;;;;;;201.07;55.22;;;2.10;99.90;;;;;;5060673;28;20117;-73
2022/01/13 10:40:15;;;;;;;183.73;52.70;;;2.20;99.90;;;;;;5061220;28;20063;-73
2022/01/13 10:45:17;;;;;;;176.55;49.13;;;2.10;99.90;;;;;;5059813;28;20161;-74
2022/01/13 10:47:54;;;;;;;180.27;51.47;;;2.20;99.90;;;;;;5060716;28;20063;-73
2022/01/13 10:50:26;;;;;;;187.65;52.45;;;2.20;99.90;;;;;;5042776;28;20044;-73
2022/01/13 10:52:52;;;;;;;159.57;45.10;;;2.30;99.90;;;;;;5061630;28;20368;-74
2022/01/13 10:55:23;;;;;;;169.07;49.75;;;2.40;99.90;;;;;;5055964;28;20072;-73
2022/01/13 10:58:09;;;;;;;183.63;53.25;;;2.30;99.90;;;;;;5041558;28;20503;-74
2022/01/13 11:00:36;;;;;;;190.65;54.92;;;2.40;99.90;;;;;;5046070;28;20074;-75
2022/01/13 11:03:12;;;;;;;163.57;48.35;;;2.60;99.90;;;;;;5061075;28;20068;-74
2022/01/13 11:05:52;;;;;;;144.25;48.15;;;2.60;99.90;;;;;;5057845;28;20059;-74
2022/01/13 11:08:27;;;;;;;137.27;42.58;;;2.70;99.90;;;;;;5025468;28;20113;-75
2022/01/13 11:10:57;;;;;;;150.15;47.25;;;2.60;99.90;;;;;;5058960;28;20572;-75
2022/01/13 11:13:26;;;;;;;119.95;41.75;;;2.70;99.90;;;;;;5061606;28;20186;-74
2022/01/13 11:15:55;;;;;;;116.60;40.90;;;2.80;99.90;;;;;;5060329;28;20044;-75
2022/01/13 11:18:29;;;;;;;127.85;43.60;;;2.80;99.90;;;;;;5042093;28;20064;-74
2022/01/13 11:20:57;;;;;;;121.03;41.08;;;2.80;99.90;;;;;;5041995;28;20261;-75
2022/01/13 11:23:25;;;;;;;111.30;38.13;;;2.90;99.90;;;;;;5048202;28;20070;-74
2022/01/13 11:25:55;;;;;;;96.40;36.83;;;3.00;99.90;;;;;;5052787;28;20179;-75
2022/01/13 11:28:23;;;;;;;86.47;34.63;;;3.00;99.90;;;;;;5025611;28;20052;-74
2022/01/13 11:30:50;;;;;;;101.63;38.13;;;3.00;99.90;;;;;;5042863;28;20127;-74
2022/01/13 11:33:19;;;;;;;106.78;38.88;;;3.10;99.90;;;;;;5060812;28;20048;-74
2022/01/13 11:35:55;;;;;;;103.55;35.47;;;3.20;99.90;;;;;;5058944;28;20049;-74
2022/01/13 11:38:25;;;;;;;77.72;31.70;;;3.20;99.90;;;;;;5057182;28;20071;-75
2022/01/13 11:40:57;;;;;;;86.82;33.75;;;3.30;99.90;;;;;;5041388;28;20131;-75
2022/01/13 11:43:35;;;;;;;79.55;32.90;;;3.40;99.90;;;;;;5060103;28;20072;-75
2022/01/13 11:46:30;;;;;;;78.80;33.42;;;3.40;99.90;;;;;;5060329;28;20040;-75
2022/01/13 11:49:16;;;;;;;80.57;32.38;;;3.50;99.90;;;;;;5060693;28;20036;-74
2022/01/13 11:51:44;;;;;;;82.10;32.45;;;3.60;99.90;;;;;;5077290;28;20712;-74
2022/01/13 11:54:23;;;;;;;79.80;33.65;;;3.80;99.90;;;;;;5041106;28;20058;-76
2022/01/13 11:57:12;;;;;;;73.68;33.90;;;3.90;99.90;;;;;;5041119;28;20041;-75
2022/01/13 11:59:46;;;;;;;68.80;31.48;;;4.00;99.90;;;;;;5032084;28;20222;-74
2022/01/13 12:02:26;;;;;;;68.67;30.00;;;4.00;99.90;;;;;;5051025;28;20109;-75
2022/01/13 12:05:10;;;;;;;65.15;29.52;;;4.10;99.90;;;;;;5024269;28;20395;-75
2022/01/13 12:07:45;;;;;;;70.22;28.63;;;4.10;99.90;;;;;;5037969;28;20048;-74
2022/01/13 12:10:20;;;;;;;54.90;26.83;;;4.20;99.90;;;;;;5058869;28;20345;-75
2022/01/13 12:12:47;;;;;;;63.45;26.38;;;4.10;99.90;;;;;;5052944;28;20476;-75
2022/01/13 12:15:21;;;;;;;58.17;28.55;;;4.10;99.90;;;;;;5023758;28;20482;-75
2022/01/13 12:18:01;;;;;;;65.97;28.83;;;4.20;99.90;;;;;;5042380;28;20044;-74
2022/01/13 12:20:47;;;;;;;60.80;27.38;;;4.10;99.90;;;;;;5040472;28;20063;-74
2022/01/13 12:23:45;;;;;;;56.92;27.17;;;4.20;99.90;;;;;;5041896;28;20052;-74
2022/01/13 12:26:30;;;;;;;57.05;24.33;;;4.40;99.90;;;;;;5043163;28;20048;-75
2022/01/13 12:29:12;;;;;;;;;;;4.60;99.90;;;;;;5021457;28;20114;-75
2022/01/13 12:32:07;;;;;;;56.97;26.38;;;4.50;99.90;;;;;;5061956;22;20547;-75
2022/01/13 12:34:33;;;;;;;62.65;27.75;;;4.50;99.90;;;;;;5020653;28;20174;-74
2022/01/13 12:37:09;;;;;;;60.30;27.08;;;4.60;99.90;;;;;;5019379;28;20456;-74
2022/01/13 12:39:40;;;;;;;61.55;27.33;;;4.70;99.90;;;;;;5028879;28;20048;-74
2022/01/13 12:42:14;;;;;;;57.67;28.27;;;4.70;99.90;;;;;;5004256;28;20053;-76
2022/01/13 12:47:30;;;;;;;56.45;25.05;;;4.90;99.90;;;;;;4987069;28;20462;-76
2022/01/13 12:49:57;;;;;;;56.83;26.98;;;5.00;99.90;;;;;;4982206;28;20057;-74
2022/01/13 12:52:27;;;;;;;56.10;27.67;;;5.20;99.90;;;;;;4981324;28;20054;-74
2022/01/13 12:54:55;;;;;;;61.05;27.25;;;5.20;99.90;;;;;;5016708;28;20041;-74
2022/01/13 12:57:23;;;;;;;57.28;27.33;;;5.20;99.90;;;;;;5000082;28;20192;-74
2022/01/13 12:59:57;;;;;;;60.13;27.48;;;5.20;99.90;;;;;;5018384;28;20151;-74
2022/01/13 13:02:25;;;;;;;58.70;26.17;;;5.30;99.90;;;;;;5018927;28;20045;-75
2022/01/13 13:04:52;;;;;;;59.90;27.55;;;5.30;99.90;;;;;;5002255;28;20058;-76
2022/01/13 13:07:20;;;;;;;53.58;26.60;;;5.50;99.90;;;;;;5000501;28;20056;-75
2022/01/13 13:09:47;;;;;;;58.75;28.00;;;5.50;99.90;;;;;;5027898;28;20149;-76